createdAt,value
2018-05-11T00:01:02.217Z,98681.78
2018-05-11T00:03:30.948Z,98678.37
2018-05-11T00:05:59.683Z,98677.59
2018-05-11T00:08:29.681Z,98680.75
2018-05-11T00:10:58.757Z,98676.55
2018-05-11T00:13:28.494Z,98682.87
2018-05-11T00:15:57.957Z,98678.38
2018-05-11T00:18:26.859Z,98687.81
2018-05-11T00:20:55.976Z,98686.95
2018-05-11T00:23:24.785Z,98690.14
2018-05-11T00:25:54.652Z,98683.64
2018-05-11T00:28:23.478Z,98689.22
2018-05-11T00:30:52.550Z,98681.06
2018-05-11T00:33:21.768Z,98677.65
2018-05-11T00:35:50.683Z,98679.94
2018-05-11T00:38:19.214Z,98677.27
2018-05-11T00:40:48.354Z,98678.44
2018-05-11T00:43:19.431Z,98676.44
2018-05-11T00:45:48.882Z,98674.65
2018-05-11T00:48:17.455Z,98672.97
2018-05-11T00:50:46.975Z,98675.45
2018-05-11T00:53:15.663Z,98672.34
2018-05-11T00:55:52.056Z,98669.95
2018-05-11T00:58:20.638Z,98668.49
2018-05-11T01:00:49.860Z,98668.44
2018-05-11T01:03:18.615Z,98666.52
2018-05-11T01:05:47.902Z,98668.67
2018-05-11T01:08:17.882Z,98670.31
2018-05-11T01:10:46.584Z,98675.42
2018-05-11T01:13:15.308Z,98677.83
2018-05-11T01:15:44.331Z,98677.02
2018-05-11T01:18:12.971Z,98677.55
2018-05-11T01:20:41.590Z,98676.80
2018-05-11T01:23:10.172Z,98676.62
2018-05-11T01:25:39.054Z,98673.76
2018-05-11T01:28:08.546Z,98680.52
2018-05-11T01:30:37.875Z,98682.86
2018-05-11T01:33:06.831Z,98680.28
2018-05-11T01:35:35.637Z,98680.38
2018-05-11T01:38:04.860Z,98682.77
2018-05-11T01:40:33.995Z,98685.78
2018-05-11T01:43:02.551Z,98690.70
2018-05-11T01:45:31.336Z,98686.77
2018-05-11T01:48:00.828Z,98686.25
2018-05-11T01:50:29.813Z,98686.52
2018-05-11T01:52:58.489Z,98684.95
2018-05-11T01:55:27.982Z,98684.09
2018-05-11T01:57:56.871Z,98683.33
2018-05-11T02:00:25.878Z,98684.06
2018-05-11T02:02:54.546Z,98677.09
2018-05-11T02:05:23.504Z,98682.27
2018-05-11T02:07:54.138Z,98678.17
2018-05-11T02:10:24.914Z,98681.83
2018-05-11T02:12:55.263Z,98686.66
2018-05-11T02:15:24.057Z,98682.73
2018-05-11T02:17:52.564Z,98683.75
2018-05-11T02:20:21.685Z,98679.06
2018-05-11T02:22:50.382Z,98673.72
2018-05-11T02:25:21.270Z,98675.45
2018-05-11T02:27:51.792Z,98680.20
2018-05-11T02:30:20.720Z,98680.71
2018-05-11T02:32:50.154Z,98681.80
2018-05-11T02:35:19.150Z,98675.35
2018-05-11T02:37:48.515Z,98675.20
2018-05-11T02:40:18.275Z,98681.13
2018-05-11T02:42:46.799Z,98683.08
2018-05-11T02:45:17.325Z,98685.66
2018-05-11T02:47:45.950Z,98685.89
2018-05-11T02:50:15.275Z,98684.81
2018-05-11T02:52:44.095Z,98679.60
2018-05-11T02:55:12.849Z,98682.30
2018-05-11T02:57:42.364Z,98688.78
2018-05-11T03:00:10.879Z,98693.05
2018-05-11T03:02:40.651Z,98694.20
2018-05-11T03:05:10.121Z,98694.84
2018-05-11T03:07:39.629Z,98695.20
2018-05-11T03:10:08.593Z,98698.72
2018-05-11T03:12:37.993Z,98695.86
2018-05-11T03:15:06.699Z,98698.42
2018-05-11T03:17:36.370Z,98689.44
2018-05-11T03:20:05.026Z,98697.96
2018-05-11T03:22:34.605Z,98702.65
2018-05-11T03:25:03.145Z,98706.87
2018-05-11T03:27:32.074Z,98708.08
2018-05-11T03:30:00.943Z,98705.03
2018-05-11T03:32:30.658Z,98704.14
2018-05-11T03:35:01.360Z,98709.15
2018-05-11T03:37:30.112Z,98713.68
2018-05-11T03:39:59.447Z,98710.65
2018-05-11T03:42:28.350Z,98711.19
2018-05-11T03:44:57.253Z,98704.40
2018-05-11T03:47:25.887Z,98708.70
2018-05-11T03:49:55.003Z,98710.97
2018-05-11T03:52:23.657Z,98711.39
2018-05-11T03:54:52.476Z,98716.42
2018-05-11T03:57:22.172Z,98717.06
2018-05-11T03:59:51.746Z,98716.55
2018-05-11T04:02:38.841Z,98719.99
2018-05-11T04:05:25.569Z,98726.47
2018-05-11T04:08:13.269Z,98728.09
2018-05-11T04:10:43.352Z,98730.00
2018-05-11T04:13:13.725Z,98736.12
2018-05-11T04:15:42.530Z,98743.63
2018-05-11T04:18:12.082Z,98751.34
2018-05-11T04:20:41.438Z,98756.98
2018-05-11T04:23:10.635Z,98752.05
2018-05-11T04:25:39.456Z,98756.77
2018-05-11T04:28:09.752Z,98752.48
2018-05-11T04:30:39.168Z,98750.61
2018-05-11T04:33:07.898Z,98754.52
2018-05-11T04:35:37.079Z,98749.35
2018-05-11T04:38:05.729Z,98750.52
2018-05-11T04:40:34.418Z,98751.22
2018-05-11T04:43:03.545Z,98757.71
2018-05-11T04:45:33.858Z,98755.27
2018-05-11T04:48:03.692Z,98759.20
2018-05-11T04:50:32.763Z,98755.92
2018-05-11T04:53:01.746Z,98755.07
2018-05-11T04:55:31.054Z,98761.23
2018-05-11T04:58:00.390Z,98763.49
2018-05-11T05:00:29.190Z,98764.49
2018-05-11T05:03:00.373Z,98766.83
2018-05-11T05:05:29.996Z,98770.09
2018-05-11T05:07:58.861Z,98771.45
2018-05-11T05:10:29.353Z,98768.50
2018-05-11T05:13:00.398Z,98771.88
2018-05-11T05:15:30.352Z,98780.47
2018-05-11T05:17:59.349Z,98782.63
2018-05-11T05:20:27.983Z,98787.64
2018-05-11T05:22:57.752Z,98783.89
2018-05-11T05:25:28.371Z,98778.64
2018-05-11T05:27:58.516Z,98781.01
2018-05-11T05:30:27.841Z,98776.59
2018-05-11T05:32:57.126Z,98782.34
2018-05-11T05:35:26.278Z,98792.11
2018-05-11T05:37:55.737Z,98793.51
2018-05-11T05:40:25.703Z,98793.70
2018-05-11T05:42:56.426Z,98799.56
2018-05-11T05:45:25.004Z,98799.07
2018-05-11T05:47:54.120Z,98801.73
2018-05-11T05:50:23.177Z,98792.48
2018-05-11T05:52:52.695Z,98796.93
2018-05-11T05:55:22.237Z,98798.75
2018-05-11T05:57:51.770Z,98799.09
2018-05-11T06:00:20.489Z,98805.70
2018-05-11T06:02:49.472Z,98807.31
2018-05-11T06:05:18.951Z,98813.55
2018-05-11T06:07:48.654Z,98817.52
2018-05-11T06:10:17.741Z,98813.44
2018-05-11T06:12:47.223Z,98809.75
2018-05-11T06:15:15.787Z,98811.28
2018-05-11T06:17:44.412Z,98815.06
2018-05-11T06:20:13.078Z,98816.06
2018-05-11T06:22:43.004Z,98822.47
2018-05-11T06:25:13.111Z,98828.46
2018-05-11T06:27:42.321Z,98826.25
2018-05-11T06:30:11.535Z,98830.19
2018-05-11T06:32:41.709Z,98832.95
2018-05-11T06:35:11.839Z,98832.27
2018-05-11T06:37:41.221Z,98833.07
2018-05-11T06:40:12.197Z,98832.11
2018-05-11T06:42:42.332Z,98836.28
2018-05-11T06:45:11.846Z,98837.63
2018-05-11T06:47:41.470Z,98839.87
2018-05-11T06:50:11.828Z,98839.03
2018-05-11T06:52:41.443Z,98836.56
2018-05-11T06:55:18.106Z,98831.84
2018-05-11T06:57:47.366Z,98836.70
2018-05-11T07:00:16.373Z,98828.69
2018-05-11T07:02:45.800Z,98834.90
2018-05-11T07:05:15.005Z,98847.55
2018-05-11T07:07:44.111Z,98841.49
2018-05-11T07:10:12.796Z,98843.88
2018-05-11T07:12:43.749Z,98841.98
2018-05-11T07:15:12.748Z,98836.16
2018-05-11T07:17:41.942Z,98841.33
2018-05-11T07:20:11.461Z,98840.77
2018-05-11T07:22:41.337Z,98836.59
2018-05-11T07:25:11.986Z,98835.94
2018-05-11T07:27:41.452Z,98838.50
2018-05-11T07:30:10.100Z,98836.52
2018-05-11T07:32:38.862Z,98832.52
2018-05-11T07:35:07.769Z,98828.13
2018-05-11T07:37:37.164Z,98825.63
2018-05-11T07:40:06.236Z,98834.34
2018-05-11T07:42:34.986Z,98831.41
2018-05-11T07:45:03.925Z,98837.12
2018-05-11T07:47:32.831Z,98840.23
2018-05-11T07:50:04.509Z,98837.41
2018-05-11T07:52:34.132Z,98836.55
2018-05-11T07:55:04.033Z,98833.94
2018-05-11T07:57:32.533Z,98836.48
2018-05-11T08:00:01.518Z,98834.41
2018-05-11T08:02:30.111Z,98832.06
2018-05-11T08:04:59.832Z,98830.73
2018-05-11T08:07:28.996Z,98830.78
2018-05-11T08:09:58.604Z,98834.40
2018-05-11T08:12:27.297Z,98836.73
2018-05-11T08:14:57.551Z,98837.23
2018-05-11T08:17:26.880Z,98835.61
2018-05-11T08:19:56.839Z,98837.95
2018-05-11T08:22:26.800Z,98841.72
2018-05-11T08:24:57.154Z,98840.75
2018-05-11T08:27:27.127Z,98845.80
2018-05-11T08:29:56.201Z,98851.44
2018-05-11T08:32:25.682Z,98842.56
2018-05-11T08:34:55.077Z,98845.92
2018-05-11T08:37:24.107Z,98847.52
2018-05-11T08:39:52.878Z,98849.07
2018-05-11T08:42:23.245Z,98850.14
2018-05-11T08:45:00.049Z,98844.02
2018-05-11T08:47:31.546Z,98853.52
2018-05-11T08:50:02.304Z,98845.36
2018-05-11T08:52:31.007Z,98843.89
2018-05-11T08:55:03.035Z,98847.04
2018-05-11T09:00:13.144Z,98849.38
2018-05-11T09:02:45.584Z,98845.66
2018-05-11T09:05:16.284Z,98852.52
2018-05-11T09:07:48.077Z,98850.77
2018-05-11T09:10:18.821Z,98858.63
2018-05-11T09:12:49.951Z,98858.86
2018-05-11T09:15:19.906Z,98856.29
2018-05-11T09:17:48.995Z,98862.61
2018-05-11T09:20:18.447Z,98863.08
2018-05-11T09:22:49.335Z,98866.06
2018-05-11T09:25:21.078Z,98857.33
2018-05-11T09:27:54.271Z,98855.02
2018-05-11T09:30:24.828Z,98854.39
2018-05-11T09:32:54.765Z,98853.67
2018-05-11T09:35:30.023Z,98854.73
2018-05-11T09:37:59.733Z,98858.06
2018-05-11T09:40:28.448Z,98862.92
2018-05-11T09:42:57.796Z,98860.42
2018-05-11T09:45:26.709Z,98863.34
2018-05-11T09:47:55.712Z,98860.38
2018-05-11T09:50:25.821Z,98865.78
2018-05-11T09:52:55.161Z,98861.91
2018-05-11T09:55:24.727Z,98860.44
2018-05-11T09:57:54.072Z,98867.48
2018-05-11T10:00:26.789Z,98856.90
2018-05-11T10:02:57.390Z,98858.84
2018-05-11T10:05:27.053Z,98850.66
2018-05-11T10:07:57.047Z,98849.98
2018-05-11T10:10:26.698Z,98854.68
2018-05-11T10:12:56.181Z,98849.46
2018-05-11T10:15:26.271Z,98848.47
2018-05-11T10:17:56.441Z,98848.28
2018-05-11T10:20:25.091Z,98854.98
2018-05-11T10:22:53.816Z,98839.41
2018-05-11T10:25:23.478Z,98845.11
2018-05-11T10:27:54.381Z,98832.97
2018-05-11T10:30:24.275Z,98832.09
2018-05-11T10:32:53.950Z,98833.58
2018-05-11T10:35:24.244Z,98837.27
2018-05-11T10:37:53.316Z,98837.59
2018-05-11T10:40:22.498Z,98832.73
2018-05-11T10:42:51.659Z,98827.44
2018-05-11T10:45:20.542Z,98837.38
2018-05-11T10:47:49.771Z,98830.52
2018-05-11T10:50:19.006Z,98830.27
2018-05-11T10:52:48.839Z,98835.37
2018-05-11T10:55:18.561Z,98831.83
2018-05-11T10:57:49.033Z,98835.87
2018-05-11T11:00:17.805Z,98830.94
2018-05-11T11:02:47.837Z,98829.94
2018-05-11T11:05:18.169Z,98823.84
2018-05-11T11:07:46.954Z,98819.36
2018-05-11T11:10:16.259Z,98821.41
2018-05-11T11:12:46.853Z,98813.74
2018-05-11T11:15:17.262Z,98814.95
2018-05-11T11:17:45.860Z,98807.95
2018-05-11T11:20:15.002Z,98809.89
2018-05-11T11:22:44.464Z,98812.02
2018-05-11T11:25:14.138Z,98806.77
2018-05-11T11:27:42.933Z,98797.42
2018-05-11T11:30:12.025Z,98796.73
2018-05-11T11:32:42.488Z,98798.02
2018-05-11T11:35:12.733Z,98799.38
2018-05-11T11:37:42.901Z,98793.16
2018-05-11T11:40:11.800Z,98799.42
2018-05-11T11:42:41.912Z,98807.72
2018-05-11T11:45:11.485Z,98794.36
2018-05-11T11:47:40.971Z,98788.86
2018-05-11T11:50:11.325Z,98783.98
2018-05-11T11:52:40.046Z,98783.45
2018-05-11T11:55:17.954Z,98780.32
2018-05-11T11:57:46.867Z,98770.30
2018-05-11T12:00:17.080Z,98767.22
2018-05-11T12:02:46.584Z,98770.20
2018-05-11T12:05:15.731Z,98771.20
2018-05-11T12:10:52.739Z,98767.77
2018-05-11T12:13:22.448Z,98764.18
2018-05-11T12:15:53.163Z,98763.89
2018-05-11T12:18:21.839Z,98774.50
2018-05-11T12:20:50.404Z,98772.08
2018-05-11T12:23:19.845Z,98772.05
2018-05-11T12:25:48.503Z,98783.22
2018-05-11T12:28:17.049Z,98781.13
2018-05-11T12:30:45.704Z,98775.86
2018-05-11T12:33:14.366Z,98779.13
2018-05-11T12:35:42.964Z,98787.02
2018-05-11T12:38:11.623Z,98788.36
2018-05-11T12:40:41.021Z,98788.85
2018-05-11T12:43:09.969Z,98782.83
2018-05-11T12:45:38.745Z,98784.75
2018-05-11T12:48:07.380Z,98784.05
2018-05-11T12:50:36.690Z,98773.44
2018-05-11T12:53:05.920Z,98774.86
2018-05-11T12:55:35.821Z,98770.57
2018-05-11T12:58:04.665Z,98769.02
2018-05-11T13:00:33.434Z,98768.86
2018-05-11T13:03:02.067Z,98759.31
2018-05-11T13:05:31.121Z,98759.09
2018-05-11T13:07:59.859Z,98766.75
2018-05-11T13:10:28.591Z,98764.16
2018-05-11T13:13:05.875Z,98767.64
2018-05-11T13:15:35.755Z,98763.72
2018-05-11T13:18:04.444Z,98757.27
2018-05-11T13:20:33.314Z,98756.66
2018-05-11T13:23:02.083Z,98752.99
2018-05-11T13:25:30.783Z,98752.56
2018-05-11T13:28:10.944Z,98747.19
2018-05-11T13:30:40.583Z,98747.59
2018-05-11T13:33:10.729Z,98747.48
2018-05-11T13:35:39.404Z,98744.19
2018-05-11T13:38:08.706Z,98738.42
2018-05-11T13:40:52.187Z,98738.00
2018-05-11T13:43:22.015Z,98737.12
2018-05-11T13:45:53.415Z,98729.73
2018-05-11T13:48:23.715Z,98734.13
2018-05-11T13:50:53.217Z,98730.59
2018-05-11T13:53:21.896Z,98728.52
2018-05-11T13:55:51.131Z,98727.98
2018-05-11T13:58:19.722Z,98727.97
2018-05-11T14:00:48.419Z,98721.37
2018-05-11T14:03:18.177Z,98716.14
2018-05-11T14:05:46.940Z,98715.73
2018-05-11T14:08:15.847Z,98712.58
2018-05-11T14:10:45.398Z,98710.98
2018-05-11T14:13:14.907Z,98712.67
2018-05-11T14:15:44.040Z,98713.58
2018-05-11T14:18:14.663Z,98703.50
2018-05-11T14:20:43.347Z,98710.08
2018-05-11T14:23:11.931Z,98712.88
2018-05-11T14:25:40.526Z,98713.57
2018-05-11T14:28:09.418Z,98711.32
2018-05-11T14:30:38.800Z,98712.81
2018-05-11T14:33:07.432Z,98712.03
2018-05-11T14:35:36.108Z,98711.45
2018-05-11T14:38:05.249Z,98711.61
2018-05-11T14:40:34.009Z,98707.24
2018-05-11T14:43:03.886Z,98720.25
2018-05-11T14:45:32.509Z,98713.84
2018-05-11T14:48:02.648Z,98718.98
2018-05-11T14:50:32.453Z,98711.95
2018-05-11T14:53:01.204Z,98708.90
2018-05-11T14:55:29.885Z,98703.14
2018-05-11T14:57:59.285Z,98704.83
2018-05-11T15:00:28.069Z,98709.29
2018-05-11T15:02:56.780Z,98711.56
2018-05-11T15:05:26.247Z,98709.29
2018-05-11T15:07:54.863Z,98708.98
2018-05-11T15:10:24.710Z,98705.00
2018-05-11T15:12:54.556Z,98708.77
2018-05-11T15:15:25.000Z,98711.70
2018-05-11T15:17:54.248Z,98710.09
2018-05-11T15:20:23.466Z,98708.80
2018-05-11T15:22:52.062Z,98706.88
2018-05-11T15:25:20.876Z,98709.75
2018-05-11T15:27:49.766Z,98711.63
2018-05-11T15:30:19.433Z,98710.02
2018-05-11T15:32:48.063Z,98714.92
2018-05-11T15:35:16.786Z,98717.67
2018-05-11T15:37:45.564Z,98716.11
2018-05-11T15:40:14.362Z,98714.17
2018-05-11T15:42:43.423Z,98718.52
2018-05-11T15:45:12.996Z,98710.77
2018-05-11T15:47:42.216Z,98714.56
2018-05-11T15:50:11.595Z,98710.86
2018-05-11T15:52:40.865Z,98703.17
2018-05-11T15:55:10.273Z,98706.28
2018-05-11T15:57:39.731Z,98706.42
2018-05-11T16:00:08.304Z,98704.64
2018-05-11T16:02:37.636Z,98713.86
2018-05-11T16:05:06.358Z,98720.19
2018-05-11T16:07:35.231Z,98722.89
2018-05-11T16:10:04.722Z,98725.18
2018-05-11T16:12:34.824Z,98723.52
2018-05-11T16:15:04.205Z,98724.65
2018-05-11T16:17:33.897Z,98718.70
2018-05-11T16:20:04.778Z,98721.18
2018-05-11T16:22:33.810Z,98717.22
2018-05-11T16:25:03.593Z,98712.84
2018-05-11T16:27:32.484Z,98709.03
2018-05-11T16:30:02.693Z,98709.61
2018-05-11T16:32:32.368Z,98708.13
2018-05-11T16:35:01.287Z,98710.53
2018-05-11T16:37:30.264Z,98713.05
2018-05-11T16:40:00.447Z,98713.80
2018-05-11T16:42:30.149Z,98713.56
2018-05-11T16:44:58.819Z,98704.84
2018-05-11T16:47:27.951Z,98706.91
2018-05-11T16:50:00.290Z,98707.72
2018-05-11T16:52:29.537Z,98708.16
2018-05-11T16:54:59.709Z,98712.26
2018-05-11T16:57:28.704Z,98708.75
2018-05-11T16:59:58.276Z,98704.59
2018-05-11T17:02:26.940Z,98700.97
2018-05-11T17:04:56.538Z,98699.02
2018-05-11T17:07:25.564Z,98711.20
2018-05-11T17:09:54.902Z,98723.03
2018-05-11T17:12:24.477Z,98727.03
2018-05-11T17:14:53.572Z,98730.28
2018-05-11T17:17:22.819Z,98730.95
2018-05-11T17:19:51.540Z,98731.06
2018-05-11T17:22:20.555Z,98729.32
2018-05-11T17:24:49.382Z,98727.94
2018-05-11T17:27:18.529Z,98737.63
2018-05-11T17:29:47.179Z,98738.20
2018-05-11T17:32:15.823Z,98741.98
2018-05-11T17:34:44.953Z,98739.20
2018-05-11T17:37:13.895Z,98742.95
2018-05-11T17:39:43.102Z,98739.44
2018-05-11T17:42:12.664Z,98740.69
2018-05-11T17:44:43.231Z,98744.64
2018-05-11T17:47:12.445Z,98745.05
2018-05-11T17:49:41.810Z,98745.41
2018-05-11T17:52:11.172Z,98737.75
2018-05-11T17:54:39.960Z,98741.31
2018-05-11T17:57:08.812Z,98740.60
2018-05-11T17:59:37.541Z,98748.09
2018-05-11T18:02:06.230Z,98742.20
2018-05-11T18:04:34.941Z,98741.73
2018-05-11T18:07:03.828Z,98744.81
2018-05-11T18:09:32.629Z,98734.48
2018-05-11T18:12:01.624Z,98743.42
2018-05-11T18:14:30.463Z,98752.75
2018-05-11T18:16:59.372Z,98750.97
2018-05-11T18:19:28.781Z,98747.22
2018-05-11T18:21:58.085Z,98750.92
2018-05-11T18:24:27.520Z,98749.48
2018-05-11T18:26:56.244Z,98748.89
2018-05-11T18:29:24.799Z,98752.89
2018-05-11T18:31:53.617Z,98747.12
2018-05-11T18:34:22.392Z,98753.76
2018-05-11T18:36:51.030Z,98755.62
2018-05-11T18:39:19.743Z,98757.97
2018-05-11T18:41:50.252Z,98769.33
2018-05-11T18:44:19.568Z,98772.48
2018-05-11T18:46:48.786Z,98775.14
2018-05-11T18:49:19.676Z,98783.73
2018-05-11T18:51:49.623Z,98792.47
2018-05-11T18:54:19.559Z,98793.98
2018-05-11T18:56:47.894Z,98798.41
2018-05-11T18:59:16.663Z,98797.13
2018-05-11T19:01:45.429Z,98806.52
2018-05-11T19:04:14.195Z,98806.36
2018-05-11T19:06:43.717Z,98808.27
2018-05-11T19:09:13.510Z,98807.23
2018-05-11T19:11:42.211Z,98811.86
2018-05-11T19:14:11.037Z,98809.89
2018-05-11T19:16:39.742Z,98815.97
2018-05-11T19:19:08.766Z,98821.98
2018-05-11T19:21:38.512Z,98824.98
2018-05-11T19:24:07.706Z,98830.45
2018-05-11T19:26:36.502Z,98833.29
2018-05-11T19:29:05.159Z,98840.61
2018-05-11T19:31:34.840Z,98835.14
2018-05-11T19:34:03.982Z,98842.86
2018-05-11T19:36:32.879Z,98840.45
2018-05-11T19:39:02.302Z,98845.10
2018-05-11T19:41:31.046Z,98855.20
2018-05-11T19:43:59.862Z,98856.64
2018-05-11T19:46:28.724Z,98853.59
2018-05-11T19:48:57.480Z,98857.91
2018-05-11T19:51:28.781Z,98857.00
2018-05-11T19:54:04.788Z,98864.30
2018-05-11T19:56:33.767Z,98868.11
2018-05-11T19:59:03.712Z,98865.46
2018-05-11T20:01:34.055Z,98869.86
2018-05-11T20:04:03.801Z,98867.20
2018-05-11T20:06:32.722Z,98870.59
2018-05-11T20:09:02.533Z,98862.95
2018-05-11T20:11:35.643Z,98864.20
2018-05-11T20:14:06.609Z,98862.59
2018-05-11T20:16:36.150Z,98863.80
2018-05-11T20:19:05.220Z,98867.27
2018-05-11T20:21:34.671Z,98856.31
2018-05-11T20:24:04.835Z,98859.22
2018-05-11T20:26:36.490Z,98863.73
2018-05-11T20:29:05.739Z,98867.14
2018-05-11T20:31:34.579Z,98873.92
2018-05-11T20:34:03.721Z,98873.41
2018-05-11T20:36:34.159Z,98872.52
2018-05-11T20:39:05.465Z,98879.12
2018-05-11T20:41:35.922Z,98883.38
2018-05-11T20:44:06.541Z,98887.69
2018-05-11T20:46:35.937Z,98883.33
2018-05-11T20:49:04.838Z,98883.27
2018-05-11T20:51:34.524Z,98884.22
2018-05-11T20:54:03.820Z,98883.48
2018-05-11T20:56:33.357Z,98881.13
2018-05-11T20:59:03.816Z,98883.06
2018-05-11T21:01:33.691Z,98883.67
2018-05-11T21:04:03.750Z,98881.92
2018-05-11T21:06:33.151Z,98876.72
2018-05-11T21:09:03.133Z,98883.25
2018-05-11T21:11:32.095Z,98886.53
2018-05-11T21:14:02.368Z,98893.27
2018-05-11T21:16:32.003Z,98896.30
2018-05-11T21:19:01.211Z,98894.55
2018-05-11T21:21:31.062Z,98896.89
2018-05-11T21:24:00.097Z,98895.27
2018-05-11T21:26:30.323Z,98894.48
2018-05-11T21:29:01.884Z,98884.88
2018-05-11T21:31:30.763Z,98889.48
2018-05-11T21:34:01.572Z,98885.23
2018-05-11T21:36:30.356Z,98887.30
2018-05-11T21:38:59.330Z,98893.92
2018-05-11T21:41:28.624Z,98892.70
2018-05-11T21:43:58.357Z,98894.23
2018-05-11T21:46:26.999Z,98898.69
2018-05-11T21:48:56.074Z,98892.62
2018-05-11T21:51:25.404Z,98895.13
2018-05-11T21:53:56.036Z,98894.44
2018-05-11T21:56:26.822Z,98897.30
2018-05-11T21:58:55.613Z,98887.11
2018-05-11T22:01:24.864Z,98900.19
2018-05-11T22:03:53.851Z,98897.70
2018-05-11T22:06:23.861Z,98897.44
2018-05-11T22:08:54.163Z,98894.53
2018-05-11T22:11:22.950Z,98900.23
2018-05-11T22:13:52.023Z,98912.73
2018-05-11T22:16:21.975Z,98908.86
2018-05-11T22:18:51.207Z,98909.39
2018-05-11T22:21:20.211Z,98908.02
2018-05-11T22:23:50.646Z,98909.76
2018-05-11T22:26:19.867Z,98911.08
2018-05-11T22:28:48.604Z,98913.17
2018-05-11T22:31:18.650Z,98915.75
2018-05-11T22:33:47.422Z,98920.17
2018-05-11T22:36:16.330Z,98912.35
2018-05-11T22:38:45.055Z,98907.08
2018-05-11T22:41:14.052Z,98910.00
2018-05-11T22:43:42.853Z,98912.48
2018-05-11T22:46:11.522Z,98911.10
2018-05-11T22:48:40.826Z,98912.64
2018-05-11T22:51:10.633Z,98914.17
2018-05-11T22:53:40.684Z,98914.16
2018-05-11T22:56:09.555Z,98919.38
2018-05-11T22:58:39.937Z,98915.36
2018-05-11T23:01:09.480Z,98916.27
2018-05-11T23:03:38.647Z,98914.94
2018-05-11T23:06:07.336Z,98915.36
2018-05-11T23:08:35.966Z,98915.36
2018-05-11T23:11:04.845Z,98912.51
2018-05-11T23:13:34.575Z,98915.29
2018-05-11T23:16:05.210Z,98911.52
2018-05-11T23:18:35.013Z,98908.20
2018-05-11T23:21:04.245Z,98909.33
2018-05-11T23:23:33.025Z,98912.36
2018-05-11T23:26:01.683Z,98903.95
2018-05-11T23:28:30.313Z,98899.99
2018-05-11T23:30:59.636Z,98904.32
2018-05-11T23:33:28.960Z,98906.38
2018-05-11T23:35:58.315Z,98908.15
2018-05-11T23:38:26.938Z,98903.81
2018-05-11T23:40:55.522Z,98898.33
2018-05-11T23:43:24.061Z,98897.09
2018-05-11T23:45:52.692Z,98901.24
2018-05-11T23:48:22.176Z,98901.16
2018-05-11T23:50:50.968Z,98902.78
2018-05-11T23:53:20.191Z,98899.81
2018-05-11T23:55:48.901Z,98902.25
2018-05-11T23:58:18.412Z,98900.73
